createdAt,value
2019-04-29T00:00:55.185Z,2.67
2019-04-29T00:03:24.686Z,2.40
2019-04-29T00:05:54.251Z,2.60
2019-04-29T00:08:23.759Z,2.52
2019-04-29T00:10:53.283Z,2.50
2019-04-29T00:13:22.854Z,2.45
2019-04-29T00:15:56.756Z,2.75
2019-04-29T00:18:27.833Z,2.30
2019-04-29T00:20:58.989Z,2.30
2019-04-29T00:23:28.422Z,2.35
2019-04-29T00:25:58.024Z,2.40
2019-04-29T00:28:27.388Z,2.47
2019-04-29T00:30:57.019Z,2.40
2019-04-29T00:33:26.536Z,2.42
2019-04-29T00:36:08.605Z,2.45
2019-04-29T00:38:42.588Z,2.35
2019-04-29T00:41:14.746Z,2.20
2019-04-29T00:43:45.822Z,2.40
2019-04-29T00:46:15.420Z,2.33
2019-04-29T00:48:44.929Z,2.35
2019-04-29T00:51:14.453Z,2.35
2019-04-29T00:53:46.404Z,2.62
2019-04-29T00:56:15.803Z,2.67
2019-04-29T00:58:45.251Z,1.92
2019-04-29T01:01:16.428Z,2.10
2019-04-29T01:03:46.949Z,2.37
2019-04-29T01:06:16.414Z,2.70
2019-04-29T01:08:45.854Z,2.05
2019-04-29T01:11:15.553Z,2.40
2019-04-29T01:13:45.000Z,2.85
2019-04-29T01:16:14.525Z,2.37
2019-04-29T01:18:43.960Z,2.67
2019-04-29T01:21:13.553Z,2.20
2019-04-29T01:23:43.130Z,2.55
2019-04-29T01:26:17.571Z,2.47
2019-04-29T01:28:49.523Z,2.45
2019-04-29T01:31:20.685Z,2.45
2019-04-29T01:33:51.812Z,2.58
2019-04-29T01:36:22.904Z,2.67
2019-04-29T01:38:54.007Z,3.12
2019-04-29T01:41:31.332Z,2.85
2019-04-29T01:44:11.375Z,2.70
2019-04-29T01:49:39.341Z,2.58
2019-04-29T01:52:11.886Z,2.90
2019-04-29T01:54:46.771Z,3.10
2019-04-29T01:57:26.723Z,3.00
2019-04-29T01:59:54.758Z,3.02
2019-04-29T02:05:12.377Z,3.77
2019-04-29T02:07:47.863Z,3.15
2019-04-29T02:10:34.739Z,3.10
2019-04-29T02:15:53.326Z,3.35
2019-04-29T02:18:26.292Z,3.20
2019-04-29T02:20:58.882Z,3.55
2019-04-29T02:23:43.653Z,3.05
2019-04-29T02:26:21.834Z,3.37
2019-04-29T02:28:55.420Z,4.17
2019-04-29T02:31:38.031Z,3.90
2019-04-29T02:34:22.064Z,3.87
2019-04-29T02:37:00.802Z,3.30
2019-04-29T02:39:40.806Z,3.65
2019-04-29T02:42:33.342Z,3.92
2019-04-29T02:45:04.437Z,3.50
2019-04-29T02:47:33.945Z,3.90
2019-04-29T02:50:05.752Z,4.12
2019-04-29T02:52:35.214Z,4.65
2019-04-29T02:55:07.151Z,4.25
2019-04-29T02:57:51.526Z,4.62
2019-04-29T03:00:22.741Z,4.37
2019-04-29T03:03:05.808Z,4.17
2019-04-29T03:05:39.899Z,4.58
2019-04-29T03:08:07.963Z,4.62
2019-04-29T03:10:37.394Z,4.58
2019-04-29T03:13:06.923Z,4.67
2019-04-29T03:15:39.434Z,4.35
2019-04-29T03:18:08.876Z,5.12
2019-04-29T03:20:40.134Z,5.17
2019-04-29T03:23:19.963Z,4.47
2019-04-29T03:25:50.450Z,5.75
2019-04-29T03:28:19.890Z,5.42
2019-04-29T03:30:49.457Z,5.55
2019-04-29T03:33:19.985Z,6.72
2019-04-29T03:35:49.480Z,6.78
2019-04-29T03:38:19.970Z,6.15
2019-04-29T03:40:49.399Z,6.60
2019-04-29T03:43:18.850Z,6.92
2019-04-29T03:45:48.272Z,6.50
2019-04-29T03:48:17.738Z,6.42
2019-04-29T03:50:47.404Z,6.70
2019-04-29T03:53:16.848Z,6.55
2019-04-29T03:55:46.271Z,6.62
2019-04-29T03:58:15.978Z,6.65
2019-04-29T04:00:47.046Z,6.30
2019-04-29T04:03:27.407Z,5.85
2019-04-29T04:06:14.744Z,6.33
2019-04-29T04:09:04.403Z,6.03
2019-04-29T04:11:16.900Z,6.47
2019-04-29T04:13:46.373Z,6.72
2019-04-29T04:16:17.470Z,6.50
2019-04-29T04:18:47.068Z,6.37
2019-04-29T04:21:16.504Z,6.60
2019-04-29T04:23:45.979Z,7.17
2019-04-29T04:26:15.413Z,6.60
2019-04-29T04:28:44.868Z,6.53
2019-04-29T04:31:14.296Z,6.83
2019-04-29T04:33:43.758Z,6.87
2019-04-29T04:36:13.256Z,6.70
2019-04-29T04:38:42.705Z,7.03
2019-04-29T04:41:13.108Z,7.78
2019-04-29T04:43:42.572Z,6.25
2019-04-29T04:46:12.081Z,7.58
2019-04-29T04:48:41.531Z,7.85
2019-04-29T04:51:10.978Z,7.28
2019-04-29T04:53:40.429Z,6.42
2019-04-29T04:56:09.928Z,6.42
2019-04-29T04:58:39.411Z,6.37
2019-04-29T05:01:08.835Z,6.62
2019-04-29T05:03:38.268Z,6.75
2019-04-29T05:06:07.800Z,7.22
2019-04-29T05:08:37.248Z,6.53
2019-04-29T05:11:06.872Z,10.05
2019-04-29T05:13:36.296Z,7.40
2019-04-29T05:16:05.760Z,6.83
2019-04-29T05:18:35.202Z,11.08
2019-04-29T05:21:05.631Z,8.18
2019-04-29T05:23:35.064Z,6.53
2019-04-29T05:26:04.656Z,6.65
2019-04-29T05:28:34.042Z,10.78
2019-04-29T05:31:03.563Z,8.30
2019-04-29T05:33:33.005Z,6.70
2019-04-29T05:36:09.899Z,7.50
2019-04-29T05:38:43.805Z,8.00
2019-04-29T05:41:13.328Z,7.28
2019-04-29T05:43:56.689Z,6.78
2019-04-29T05:46:42.687Z,6.72
2019-04-29T05:49:13.761Z,6.80
2019-04-29T05:51:44.874Z,5.97
2019-04-29T05:54:18.700Z,6.65
2019-04-29T05:56:49.224Z,6.87
2019-04-29T05:59:18.663Z,6.03
2019-04-29T06:01:48.976Z,6.00
2019-04-29T06:04:18.509Z,6.72
2019-04-29T06:06:47.968Z,6.25
2019-04-29T06:09:18.435Z,7.00
2019-04-29T06:11:48.020Z,6.25
2019-04-29T06:14:17.451Z,6.83
2019-04-29T06:16:46.955Z,7.25
2019-04-29T06:19:16.391Z,6.47
2019-04-29T06:21:45.882Z,6.37
2019-04-29T06:24:16.344Z,5.30
2019-04-29T06:26:45.809Z,6.22
2019-04-29T06:29:15.237Z,5.12
2019-04-29T06:31:46.032Z,5.87
2019-04-29T06:34:15.423Z,6.05
2019-04-29T06:36:44.966Z,6.30
2019-04-29T06:39:14.397Z,5.87
2019-04-29T06:41:45.072Z,6.22
2019-04-29T06:44:16.609Z,6.83
2019-04-29T06:46:46.059Z,6.40
2019-04-29T06:49:18.602Z,6.22
2019-04-29T06:51:49.509Z,6.90
2019-04-29T06:54:18.924Z,6.83
2019-04-29T06:56:52.320Z,6.25
2019-04-29T06:59:23.316Z,7.30
2019-04-29T07:01:52.839Z,7.33
2019-04-29T07:04:30.735Z,7.60
2019-04-29T07:06:59.060Z,6.97
2019-04-29T07:09:28.491Z,6.62
2019-04-29T07:12:01.703Z,7.60
2019-04-29T07:14:33.245Z,6.90
2019-04-29T07:17:00.837Z,6.85
2019-04-29T07:19:31.201Z,7.28
2019-04-29T07:22:00.666Z,6.92
2019-04-29T07:24:31.734Z,6.75
2019-04-29T07:27:02.717Z,7.92
2019-04-29T07:29:32.915Z,7.42
2019-04-29T07:32:04.696Z,8.53
2019-04-29T07:34:39.115Z,8.53
2019-04-29T07:37:05.333Z,8.55
2019-04-29T07:39:36.369Z,8.30
2019-04-29T07:42:07.363Z,9.05
2019-04-29T07:44:44.037Z,9.10
2019-04-29T07:47:09.531Z,7.72
2019-04-29T07:49:38.964Z,8.65
2019-04-29T07:52:09.766Z,8.13
2019-04-29T07:54:39.464Z,9.30
2019-04-29T07:57:12.424Z,7.80
2019-04-29T07:59:42.705Z,8.15
2019-04-29T08:02:12.161Z,7.67
2019-04-29T08:04:41.610Z,8.28
2019-04-29T08:07:11.292Z,6.75
2019-04-29T08:09:44.381Z,7.62
2019-04-29T08:12:17.184Z,7.53
2019-04-29T08:14:48.696Z,7.80
2019-04-29T08:17:22.156Z,8.20
2019-04-29T08:20:07.642Z,5.72
2019-04-29T08:22:37.356Z,7.40
2019-04-29T08:25:09.114Z,7.87
2019-04-29T08:27:39.985Z,8.10
2019-04-29T08:30:11.335Z,8.13
2019-04-29T08:32:40.867Z,6.53
2019-04-29T08:35:16.297Z,8.40
2019-04-29T08:37:47.372Z,7.80
2019-04-29T08:40:20.483Z,6.83
2019-04-29T08:43:08.140Z,7.83
2019-04-29T08:45:43.276Z,7.72
2019-04-29T08:48:13.684Z,9.58
2019-04-29T08:50:43.415Z,8.08
2019-04-29T08:53:12.862Z,12.00
2019-04-29T08:55:43.936Z,10.72
2019-04-29T08:58:13.415Z,8.83
2019-04-29T09:00:55.238Z,10.40
2019-04-29T09:03:41.837Z,8.80
2019-04-29T09:06:05.440Z,9.10
2019-04-29T09:08:37.034Z,12.57
2019-04-29T09:11:08.121Z,9.85
2019-04-29T09:13:37.628Z,10.68
2019-04-29T09:16:07.152Z,10.75
2019-04-29T09:18:36.697Z,9.93
2019-04-29T09:21:06.150Z,11.22
2019-04-29T09:23:37.423Z,10.10
2019-04-29T09:26:08.575Z,11.03
2019-04-29T09:28:38.098Z,11.80
2019-04-29T09:31:07.685Z,11.80
2019-04-29T09:33:37.139Z,13.13
2019-04-29T09:36:09.539Z,13.45
2019-04-29T09:38:39.421Z,12.05
2019-04-29T09:41:16.253Z,10.40
2019-04-29T09:43:59.108Z,14.68
2019-04-29T09:46:30.097Z,17.87
2019-04-29T09:48:59.021Z,11.33
2019-04-29T09:51:29.724Z,10.10
2019-04-29T09:53:59.358Z,10.08
2019-04-29T09:56:28.809Z,10.72
2019-04-29T09:59:12.031Z,9.70
2019-04-29T10:01:44.339Z,10.35
2019-04-29T10:04:15.445Z,10.32
2019-04-29T10:06:46.608Z,11.65
2019-04-29T10:09:16.150Z,10.82
2019-04-29T10:11:45.587Z,12.60
2019-04-29T10:14:15.194Z,11.55
2019-04-29T10:16:46.280Z,12.90
2019-04-29T10:19:19.882Z,13.68
2019-04-29T10:21:49.333Z,12.73
2019-04-29T10:24:18.973Z,13.85
2019-04-29T10:26:48.492Z,10.55
2019-04-29T10:29:25.446Z,10.88
2019-04-29T10:31:54.088Z,9.70
2019-04-29T10:34:26.985Z,10.85
2019-04-29T10:36:54.930Z,10.68
2019-04-29T10:39:28.846Z,11.05
2019-04-29T10:42:08.730Z,10.48
2019-04-29T10:45:04.441Z,10.82
2019-04-29T10:51:02.660Z,10.23
2019-04-29T10:53:34.955Z,11.43
2019-04-29T10:56:07.354Z,11.50
2019-04-29T10:58:36.975Z,11.78
2019-04-29T11:01:29.086Z,12.10
2019-04-29T11:04:00.840Z,11.68
2019-04-29T11:06:31.502Z,10.78
2019-04-29T11:09:14.450Z,12.85
2019-04-29T11:11:43.372Z,14.47
2019-04-29T11:14:12.907Z,17.70
2019-04-29T11:16:46.597Z,11.85
2019-04-29T11:19:13.576Z,13.80
2019-04-29T11:21:44.439Z,16.30
2019-04-29T11:24:32.471Z,14.70
2019-04-29T11:27:11.609Z,15.18
2019-04-29T11:29:35.851Z,14.83
2019-04-29T11:32:07.033Z,12.10
2019-04-29T11:34:55.078Z,16.25
2019-04-29T11:37:25.047Z,17.40
2019-04-29T11:39:57.179Z,16.23
2019-04-29T11:42:26.799Z,12.93
2019-04-29T11:44:57.104Z,14.50
2019-04-29T11:47:27.853Z,12.78
2019-04-29T11:49:58.913Z,8.80
2019-04-29T11:52:29.289Z,9.70
2019-04-29T11:54:58.847Z,12.53
2019-04-29T11:57:40.933Z,14.47
2019-04-29T12:00:26.473Z,10.85
2019-04-29T12:02:57.553Z,14.63
2019-04-29T12:05:28.729Z,10.98
2019-04-29T12:07:58.164Z,10.72
2019-04-29T12:10:27.691Z,13.95
2019-04-29T12:12:58.770Z,12.75
2019-04-29T12:15:39.041Z,9.60
2019-04-29T12:18:16.108Z,8.03
2019-04-29T12:23:18.587Z,6.60
2019-04-29T12:25:48.119Z,6.90
2019-04-29T12:28:19.278Z,6.72
2019-04-29T12:30:50.407Z,7.20
2019-04-29T12:33:32.466Z,8.15
2019-04-29T12:36:05.133Z,7.05
2019-04-29T12:38:48.859Z,6.58
2019-04-29T12:41:30.347Z,7.80
2019-04-29T12:44:02.281Z,6.45
2019-04-29T12:46:42.041Z,7.35
2019-04-29T12:49:13.778Z,8.60
2019-04-29T12:51:42.705Z,8.93
2019-04-29T12:54:12.154Z,7.42
2019-04-29T12:56:43.363Z,9.35
2019-04-29T12:59:13.023Z,8.83
2019-04-29T13:01:58.347Z,7.72
2019-04-29T13:04:45.057Z,7.25
2019-04-29T13:07:25.638Z,7.53
2019-04-29T13:10:06.853Z,9.58
2019-04-29T13:12:39.855Z,8.23
2019-04-29T13:15:26.687Z,10.60
2019-04-29T13:18:03.503Z,8.13
2019-04-29T13:20:28.980Z,9.10
2019-04-29T13:23:01.148Z,8.80
2019-04-29T13:25:29.560Z,6.83
2019-04-29T13:28:03.877Z,7.95
2019-04-29T13:30:30.142Z,7.45
2019-04-29T13:33:01.196Z,5.20
2019-04-29T13:35:30.724Z,6.35
2019-04-29T13:38:00.278Z,6.08
2019-04-29T13:40:33.001Z,6.15
2019-04-29T13:43:00.843Z,5.90
2019-04-29T13:45:37.815Z,5.95
2019-04-29T13:48:09.173Z,6.12
2019-04-29T13:50:40.674Z,6.17
2019-04-29T13:53:11.690Z,6.67
2019-04-29T13:55:49.927Z,5.97
2019-04-29T13:58:12.475Z,5.78
2019-04-29T14:00:43.616Z,6.80
2019-04-29T14:03:17.692Z,7.35
2019-04-29T14:05:47.209Z,7.97
2019-04-29T14:12:46.329Z,7.10
2019-04-29T14:14:38.843Z,8.13
2019-04-29T14:17:25.309Z,7.92
2019-04-29T14:19:42.515Z,6.70
2019-04-29T14:22:21.936Z,8.58
2019-04-29T14:24:46.516Z,7.75
2019-04-29T14:27:24.482Z,7.37
2019-04-29T14:29:45.619Z,8.75
2019-04-29T14:32:18.288Z,7.40
2019-04-29T14:34:54.122Z,7.53
2019-04-29T14:37:25.453Z,9.45
2019-04-29T14:39:54.786Z,7.92
2019-04-29T14:42:34.544Z,7.92
2019-04-29T14:45:09.098Z,8.20
2019-04-29T14:47:46.024Z,10.82
2019-04-29T14:50:20.228Z,8.40
2019-04-29T14:52:49.328Z,10.45
2019-04-29T14:55:19.913Z,8.98
2019-04-29T14:57:49.050Z,9.98
2019-04-29T15:00:20.318Z,9.10
2019-04-29T15:02:49.916Z,10.63
2019-04-29T15:05:19.291Z,9.48
2019-04-29T15:07:48.770Z,8.55
2019-04-29T15:10:18.294Z,8.58
2019-04-29T15:13:19.248Z,9.20
2019-04-29T15:15:35.244Z,24.02
2019-04-29T15:18:17.473Z,20.37
2019-04-29T15:20:57.786Z,22.42
2019-04-29T15:23:32.665Z,11.18
2019-04-29T15:25:59.971Z,8.90
2019-04-29T15:28:29.428Z,41.75
2019-04-29T15:30:59.982Z,9.70
2019-04-29T15:33:30.629Z,9.35
2019-04-29T15:36:01.680Z,9.95
2019-04-29T15:38:33.866Z,5.35
2019-04-29T15:41:05.406Z,8.55
2019-04-29T15:43:46.730Z,8.18
2019-04-29T15:46:06.551Z,6.33
2019-04-29T15:48:36.575Z,7.62
2019-04-29T15:51:09.298Z,7.10
2019-04-29T15:53:37.766Z,8.33
2019-04-29T15:56:27.047Z,8.65
2019-04-29T15:58:38.818Z,8.55
2019-04-29T16:01:14.591Z,9.13
2019-04-29T16:03:40.758Z,8.03
2019-04-29T16:06:21.059Z,7.55
2019-04-29T16:08:50.778Z,7.15
2019-04-29T16:11:36.927Z,7.03
2019-04-29T16:16:39.161Z,7.17
2019-04-29T16:19:10.301Z,11.85
2019-04-29T16:21:41.806Z,27.62
2019-04-29T16:24:25.743Z,51.63
2019-04-29T16:26:43.127Z,38.10
2019-04-29T16:29:15.190Z,29.45
2019-04-29T16:31:43.777Z,28.52
2019-04-29T16:34:13.325Z,76.67
2019-04-29T16:36:49.170Z,11.68
2019-04-29T16:39:14.804Z,23.25
2019-04-29T16:41:58.429Z,36.53
2019-04-29T16:44:35.798Z,20.45
2019-04-29T16:46:54.466Z,10.82
2019-04-29T16:49:24.085Z,16.23
2019-04-29T16:51:55.636Z,12.37
2019-04-29T16:54:28.443Z,11.12
2019-04-29T16:56:56.884Z,25.12
2019-04-29T16:59:26.391Z,18.67
2019-04-29T17:01:55.859Z,18.35
2019-04-29T17:04:25.363Z,19.10
2019-04-29T17:07:11.890Z,15.88
2019-04-29T17:09:27.747Z,11.97
2019-04-29T17:11:58.442Z,12.80
2019-04-29T17:14:28.229Z,12.98
2019-04-29T17:16:57.842Z,11.68
2019-04-29T17:19:27.358Z,14.13
2019-04-29T17:22:23.413Z,13.93
2019-04-29T17:24:27.896Z,13.35
2019-04-29T17:27:01.756Z,12.58
2019-04-29T17:29:48.919Z,14.18
2019-04-29T17:32:22.829Z,16.85
2019-04-29T17:34:59.493Z,14.95
2019-04-29T17:35:17.751Z,8.70
2019-04-29T17:37:24.069Z,21.75
2019-04-29T17:39:56.573Z,15.70
2019-04-29T17:42:27.756Z,18.37
2019-04-29T17:44:57.463Z,24.40
2019-04-29T17:47:47.363Z,19.15
2019-04-29T17:50:31.036Z,42.88
2019-04-29T17:53:00.955Z,21.73
2019-04-29T17:55:37.924Z,26.20
2019-04-29T17:58:07.817Z,85.83
2019-04-29T18:00:44.520Z,24.07
2019-04-29T18:03:15.266Z,22.17
2019-04-29T18:05:55.025Z,44.13
2019-04-29T18:08:27.897Z,21.02
2019-04-29T18:13:29.334Z,25.15
2019-04-29T18:16:03.960Z,28.62
2019-04-29T18:18:45.470Z,23.38
2019-04-29T18:21:21.534Z,26.75
2019-04-29T18:24:01.540Z,24.77
2019-04-29T18:30:19.444Z,28.95
2019-04-29T18:32:58.525Z,22.13
2019-04-29T18:35:27.970Z,18.87
2019-04-29T18:37:57.446Z,26.73
2019-04-29T18:40:30.045Z,21.15
2019-04-29T18:43:00.247Z,23.40
2019-04-29T18:45:34.121Z,30.68
2019-04-29T18:48:00.839Z,23.65
2019-04-29T18:50:34.174Z,20.12
2019-04-29T18:53:01.522Z,20.20
2019-04-29T18:55:30.957Z,17.27
2019-04-29T18:58:00.432Z,18.37
2019-04-29T19:00:29.995Z,15.85
2019-04-29T19:03:01.114Z,17.73
2019-04-29T19:05:35.427Z,17.25
2019-04-29T19:08:13.706Z,20.50
2019-04-29T19:10:37.404Z,15.45
2019-04-29T19:13:12.604Z,14.70
2019-04-29T19:15:43.998Z,14.80
2019-04-29T19:18:12.419Z,15.28
2019-04-29T19:20:40.308Z,17.87
2019-04-29T19:23:10.331Z,20.90
2019-04-29T19:25:41.620Z,20.70
2019-04-29T19:28:20.403Z,16.82
2019-04-29T19:30:45.127Z,22.20
2019-04-29T19:33:16.433Z,11.53
2019-04-29T19:35:45.875Z,18.07
2019-04-29T19:38:15.808Z,15.60
2019-04-29T19:40:45.457Z,19.23
2019-04-29T19:43:18.715Z,19.52
2019-04-29T19:45:49.145Z,16.57
2019-04-29T19:48:17.101Z,20.15
2019-04-29T19:50:50.090Z,12.07
2019-04-29T19:53:17.767Z,15.78
2019-04-29T19:55:47.231Z,22.70
2019-04-29T19:58:17.326Z,15.75
2019-04-29T20:00:49.025Z,19.15
2019-04-29T20:03:24.027Z,24.18
2019-04-29T20:06:07.770Z,18.17
2019-04-29T20:08:50.186Z,19.12
2019-04-29T20:11:11.467Z,27.82
2019-04-29T20:13:33.704Z,22.48
2019-04-29T20:16:12.725Z,24.12
2019-04-29T20:18:58.848Z,22.98
2019-04-29T20:21:25.073Z,19.27
2019-04-29T20:23:53.270Z,26.40
2019-04-29T20:26:28.942Z,17.35
2019-04-29T20:28:55.515Z,21.52
2019-04-29T20:31:26.072Z,17.62
2019-04-29T20:33:58.491Z,21.75
2019-04-29T20:36:38.487Z,21.97
2019-04-29T20:38:58.306Z,17.00
2019-04-29T20:41:40.144Z,25.00
2019-04-29T20:44:00.827Z,21.97
2019-04-29T20:46:43.302Z,24.47
2019-04-29T20:49:01.336Z,22.65
2019-04-29T20:51:47.929Z,22.62
2019-04-29T20:54:03.642Z,24.77
2019-04-29T20:56:35.371Z,31.17
2019-04-29T20:59:09.361Z,31.50
2019-04-29T21:01:43.141Z,26.90
2019-04-29T21:04:11.893Z,23.60
2019-04-29T21:06:57.552Z,23.20
2019-04-29T21:09:12.569Z,18.30
2019-04-29T21:11:56.683Z,30.37
2019-04-29T21:14:33.817Z,24.52
2019-04-29T21:17:02.187Z,27.48
2019-04-29T21:19:30.560Z,15.15
2019-04-29T21:22:00.027Z,23.65
2019-04-29T21:24:29.532Z,22.00
2019-04-29T21:26:58.995Z,22.42
2019-04-29T21:29:28.564Z,21.97
2019-04-29T21:32:01.487Z,35.70
2019-04-29T21:34:37.028Z,38.28
2019-04-29T21:37:09.966Z,31.00
2019-04-29T21:39:41.513Z,23.80
2019-04-29T21:42:29.773Z,24.95
2019-04-29T21:44:58.618Z,24.43
2019-04-29T21:47:28.329Z,24.23
2019-04-29T21:49:57.833Z,27.58
2019-04-29T21:52:27.405Z,30.35
2019-04-29T21:54:56.961Z,56.40
2019-04-29T21:57:26.533Z,30.92
2019-04-29T21:59:58.808Z,22.82
2019-04-29T22:02:28.490Z,22.55
2019-04-29T22:04:57.997Z,16.93
2019-04-29T22:07:27.461Z,20.52
2019-04-29T22:09:56.901Z,22.05
2019-04-29T22:12:26.472Z,24.60
2019-04-29T22:14:56.454Z,33.28
2019-04-29T22:17:32.971Z,18.12
2019-04-29T22:20:03.896Z,21.25
2019-04-29T22:22:30.682Z,15.72
2019-04-29T22:25:05.793Z,21.52
2019-04-29T22:27:34.282Z,22.05
2019-04-29T22:30:10.206Z,19.23
2019-04-29T22:32:41.269Z,28.65
2019-04-29T22:35:10.840Z,24.63
2019-04-29T22:37:40.301Z,26.35
2019-04-29T22:40:10.085Z,27.22
2019-04-29T22:42:42.189Z,21.95
2019-04-29T22:45:11.932Z,23.05
2019-04-29T22:47:41.541Z,29.87
2019-04-29T22:50:11.340Z,17.07
2019-04-29T22:52:40.849Z,23.02
2019-04-29T22:55:10.568Z,25.88
2019-04-29T22:57:40.005Z,17.73
2019-04-29T23:00:10.486Z,20.43
2019-04-29T23:02:41.545Z,21.77
2019-04-29T23:05:11.239Z,17.80
2019-04-29T23:07:40.686Z,23.92
2019-04-29T23:10:10.379Z,22.82
2019-04-29T23:12:39.821Z,25.20
2019-04-29T23:15:09.516Z,24.10
2019-04-29T23:17:42.620Z,22.80
2019-04-29T23:20:12.001Z,30.95
2019-04-29T23:22:43.068Z,30.48
2019-04-29T23:25:17.312Z,21.80
2019-04-29T23:27:48.530Z,25.15
2019-04-29T23:30:19.683Z,28.32
2019-04-29T23:32:49.197Z,31.12
2019-04-29T23:35:18.657Z,23.75
2019-04-29T23:37:48.168Z,21.07
2019-04-29T23:40:17.708Z,24.85
2019-04-29T23:42:47.974Z,26.97
2019-04-29T23:45:21.057Z,23.57
2019-04-29T23:47:50.449Z,28.67
2019-04-29T23:50:20.248Z,26.02
2019-04-29T23:52:51.901Z,28.07
2019-04-29T23:55:25.640Z,26.40
2019-04-29T23:58:03.856Z,27.05
